Time;durP1;ratioP1;P1;durP2;ratioP2;P2;SDS_P1;SDS_P2;PMS_P1;PMS_P2;Temp;Humidity;BMP_temperature;BMP_pressure;BME280_temperature;BME280_humidity;BME280_pressure;Samples;Min_cycle;Max_cycle;Signal;HPM_P1;HPM_P2
2023/01/29 00:01:07;;;;;;;29.92;14.40;;;1.30;99.90;;;;;;5022466;28;20094;-90
2023/01/29 00:03:34;;;;;;;28.73;14.82;;;1.30;99.90;;;;;;5010589;28;20034;-90
2023/01/29 00:06:03;;;;;;;30.60;14.65;;;1.30;99.90;;;;;;5019481;28;20466;-90
2023/01/29 00:08:29;;;;;;;26.80;13.75;;;1.30;99.90;;;;;;5023573;28;20041;-89
2023/01/29 00:11:00;;;;;;;29.05;13.43;;;1.30;99.90;;;;;;5017652;28;20547;-90
2023/01/29 00:13:26;;;;;;;31.75;15.93;;;1.30;99.90;;;;;;5016036;28;20473;-90
2023/01/29 00:15:57;;;;;;;30.17;14.25;;;1.20;99.90;;;;;;5017982;28;20025;-89
2023/01/29 00:18:23;;;;;;;31.23;15.20;;;1.20;99.90;;;;;;5010462;28;20041;-90
2023/01/29 00:20:48;;;;;;;30.58;14.75;;;1.20;99.90;;;;;;5026452;28;20026;-90
2023/01/29 00:23:14;;;;;;;30.17;14.73;;;1.20;99.90;;;;;;5019026;28;20102;-89
2023/01/29 00:25:41;;;;;;;27.92;14.30;;;1.20;99.90;;;;;;5008840;28;20484;-90
2023/01/29 00:28:06;;;;;;;32.72;16.02;;;1.20;99.90;;;;;;5034622;28;20030;-90
2023/01/29 00:30:32;;;;;;;32.83;15.95;;;1.30;99.90;;;;;;5014346;28;20029;-89
2023/01/29 00:32:57;;;;;;;30.75;15.10;;;1.20;99.90;;;;;;5016570;28;20029;-91
2023/01/29 00:35:23;;;;;;;32.20;15.10;;;1.30;99.90;;;;;;5016395;28;20564;-89
2023/01/29 00:37:48;;;;;;;25.75;13.32;;;1.30;99.90;;;;;;5010919;28;20406;-89
2023/01/29 00:40:14;;;;;;;28.45;14.52;;;1.20;99.90;;;;;;5013569;28;20026;-90
2023/01/29 00:45:24;;;;;;;32.95;15.80;;;1.10;99.90;;;;;;5024734;28;20075;-89
2023/01/29 00:47:49;;;;;;;33.22;15.25;;;1.10;99.90;;;;;;5008564;28;20489;-90
2023/01/29 00:50:15;;;;;;;46.78;18.88;;;1.10;99.90;;;;;;5014521;28;20088;-90
2023/01/29 00:52:40;;;;;;;33.17;15.50;;;1.00;99.90;;;;;;5016311;28;20026;-89
2023/01/29 00:55:07;;;;;;;31.33;14.77;;;1.10;99.90;;;;;;5010554;28;20027;-90
2023/01/29 00:57:34;;;;;;;33.28;14.93;;;1.00;99.90;;;;;;5007009;28;20172;-89
2023/01/29 01:00:01;;;;;;;28.48;14.35;;;1.00;99.90;;;;;;5014736;28;20034;-90
2023/01/29 01:05:16;;;;;;;32.00;15.15;;;1.00;99.90;;;;;;5014330;28;20493;-90
2023/01/29 01:07:42;;;;;;;29.50;14.95;;;1.00;99.90;;;;;;5008351;28;20053;-90
2023/01/29 01:10:22;;;;;;;31.73;14.88;;;1.00;99.90;;;;;;5013012;28;20124;-90
2023/01/29 01:12:53;;;;;;;31.75;15.15;;;1.00;99.90;;;;;;5012616;28;20030;-90
2023/01/29 01:15:19;;;;;;;30.02;14.98;;;1.00;99.90;;;;;;4995557;28;20041;-90
2023/01/29 01:17:45;;;;;;;30.10;14.82;;;1.00;99.90;;;;;;5003451;28;20402;-90
2023/01/29 01:20:11;;;;;;;31.45;14.85;;;1.10;99.90;;;;;;5010930;28;20038;-89
2023/01/29 01:22:37;;;;;;;34.47;15.50;;;1.10;99.90;;;;;;5006756;28;20478;-88
2023/01/29 01:25:03;;;;;;;31.77;14.82;;;1.10;99.90;;;;;;5009956;28;20041;-90
2023/01/29 01:27:28;;;;;;;32.22;16.00;;;1.10;99.90;;;;;;5010084;28;20034;-89
2023/01/29 01:29:54;;;;;;;29.52;14.30;;;1.10;99.90;;;;;;5014268;28;20078;-91
2023/01/29 01:32:19;;;;;;;30.55;15.27;;;1.10;99.90;;;;;;5014138;28;20033;-90
2023/01/29 01:34:45;;;;;;;35.33;16.75;;;1.10;99.90;;;;;;5009224;28;20034;-91
2023/01/29 01:37:10;;;;;;;28.70;15.52;;;1.10;99.90;;;;;;5009860;28;20069;-90
2023/01/29 01:39:36;;;;;;;28.85;15.30;;;1.10;99.90;;;;;;5016545;28;20025;-89
2023/01/29 01:42:02;;;;;;;33.08;15.57;;;1.10;99.90;;;;;;5017624;28;20099;-90
2023/01/29 01:45:03;;;;;;;31.90;15.55;;;1.10;99.90;;;;;;5014825;28;20025;-90
2023/01/29 01:47:54;;;;;;;32.60;15.02;;;1.10;99.90;;;;;;5014464;28;20029;-90
2023/01/29 01:50:27;;;;;;;30.73;15.75;;;1.10;99.90;;;;;;5012957;28;20091;-89
2023/01/29 01:53:01;;;;;;;31.30;15.10;;;1.10;99.90;;;;;;5024171;28;20029;-91
2023/01/29 01:55:31;;;;;;;31.35;15.32;;;1.00;99.90;;;;;;5016806;28;20477;-89
2023/01/29 01:58:08;;;;;;;34.00;16.38;;;1.00;99.90;;;;;;5016047;28;20042;-89
2023/01/29 02:00:33;;;;;;;33.05;15.63;;;1.00;99.90;;;;;;5016188;28;20083;-89
2023/01/29 02:11:50;;;;;;;36.50;15.45;;;1.00;99.90;;;;;;5032821;28;20496;-90
2023/01/29 02:14:16;;;;;;;31.90;15.93;;;1.00;99.90;;;;;;5007636;28;20053;-90
2023/01/29 02:16:41;;;;;;;33.55;15.68;;;1.00;99.90;;;;;;5027755;28;20481;-89
2023/01/29 02:19:33;;;;;;;36.08;16.58;;;1.00;99.90;;;;;;5020693;28;20029;-90
2023/01/29 02:22:10;;;;;;;31.27;15.90;;;1.10;99.90;;;;;;5014205;28;20030;-89
2023/01/29 02:25:09;;;;;;;33.67;16.35;;;1.10;99.90;;;;;;5030225;28;20026;-89
2023/01/29 02:27:34;;;;;;;34.55;15.30;;;1.10;99.90;;;;;;5016390;28;20116;-89
2023/01/29 02:30:08;;;;;;;27.83;14.65;;;1.10;99.90;;;;;;5014227;28;20052;-88
2023/01/29 02:32:53;;;;;;;33.25;16.77;;;1.10;99.90;;;;;;5012043;28;20039;-89
2023/01/29 02:35:33;;;;;;;29.60;14.52;;;1.10;99.90;;;;;;5031602;28;20515;-90
2023/01/29 02:38:29;;;;;;;32.00;14.65;;;1.10;99.90;;;;;;5017209;28;20070;-89
2023/01/29 02:41:07;;;;;;;31.98;15.85;;;1.20;99.90;;;;;;4999097;28;20037;-89
2023/01/29 02:43:46;;;;;;;31.25;14.88;;;1.10;99.90;;;;;;5027468;28;20033;-90
2023/01/29 02:46:36;;;;;;;31.23;14.70;;;1.20;99.90;;;;;;5025088;28;20033;-90
2023/01/29 02:49:21;;;;;;;30.70;14.98;;;1.20;99.90;;;;;;5013266;28;20030;-89
2023/01/29 02:51:52;;;;;;;34.85;16.13;;;1.20;99.90;;;;;;5010450;28;20033;-90
2023/01/29 02:54:37;;;;;;;31.23;15.77;;;1.20;99.90;;;;;;5024371;28;20113;-90
2023/01/29 02:57:13;;;;;;;34.53;16.40;;;1.20;99.90;;;;;;5007447;28;20374;-90
2023/01/29 02:59:49;;;;;;;31.88;15.75;;;1.20;99.90;;;;;;5004758;28;20100;-90
2023/01/29 03:02:20;;;;;;;30.80;15.48;;;1.20;99.90;;;;;;5028547;28;20088;-91
2023/01/29 03:04:52;;;;;;;30.65;15.13;;;1.20;99.90;;;;;;5030387;28;20013;-90
2023/01/29 03:07:45;;;;;;;31.50;15.35;;;1.20;99.90;;;;;;5006486;28;20080;-90
2023/01/29 03:10:25;;;;;;;31.67;15.23;;;1.30;99.90;;;;;;5007790;28;20060;-88
2023/01/29 03:13:07;;;;;;;32.42;15.43;;;1.30;99.90;;;;;;5021034;28;20030;-90
2023/01/29 03:15:41;;;;;;;33.08;15.98;;;1.30;99.90;;;;;;5004407;28;20032;-89
2023/01/29 03:18:15;;;;;;;34.92;15.30;;;1.30;99.90;;;;;;5022643;28;20073;-89
2023/01/29 03:20:50;;;;;;;33.92;16.48;;;1.30;99.90;;;;;;5015290;28;20052;-90
2023/01/29 03:34:43;;;;;;;32.72;15.75;;;1.40;99.90;;;;;;5031334;28;20055;-90
2023/01/29 03:37:22;;;;;;;34.33;16.67;;;1.40;99.90;;;;;;5010392;28;20025;-90
2023/01/29 03:39:48;;;;;;;37.42;17.33;;;1.50;99.90;;;;;;5008995;28;20125;-89
2023/01/29 03:42:28;;;;;;;37.45;17.98;;;1.50;99.90;;;;;;5015334;28;20454;-90
2023/01/29 03:45:09;;;;;;;39.05;17.48;;;1.50;99.90;;;;;;5037531;28;20021;-89
2023/01/29 03:48:03;;;;;;;37.15;17.70;;;1.50;99.90;;;;;;5013866;28;20022;-90
2023/01/29 03:50:48;;;;;;;33.42;16.40;;;1.60;99.90;;;;;;5033175;28;20101;-89
2023/01/29 03:53:29;;;;;;;36.50;18.55;;;1.60;99.90;;;;;;5007259;28;20042;-89
2023/01/29 03:56:06;;;;;;;31.92;15.70;;;1.60;99.90;;;;;;5015211;28;20124;-89
2023/01/29 03:58:49;;;;;;;35.80;16.75;;;1.60;99.90;;;;;;5014747;28;20067;-89
2023/01/29 04:01:19;;;;;;;40.08;17.45;;;1.60;99.90;;;;;;5015908;28;20025;-90
2023/01/29 04:03:54;;;;;;;35.50;16.85;;;1.50;99.90;;;;;;5013875;28;20029;-90
2023/01/29 04:06:23;;;;;;;35.38;17.10;;;1.60;99.90;;;;;;5013965;28;20121;-89
2023/01/29 04:09:00;;;;;;;34.45;16.85;;;1.60;99.90;;;;;;5012300;28;20040;-89
2023/01/29 04:11:28;;;;;;;38.97;16.77;;;1.60;99.90;;;;;;5020311;28;20032;-89
2023/01/29 04:13:55;;;;;;;35.90;17.10;;;1.50;99.90;;;;;;5009799;28;20030;-90
2023/01/29 04:16:27;;;;;;;35.90;17.50;;;1.50;99.90;;;;;;5011973;28;20481;-90
2023/01/29 04:18:53;;;;;;;34.38;16.50;;;1.50;99.90;;;;;;5018542;28;20038;-90
2023/01/29 04:21:19;;;;;;;35.75;17.35;;;1.60;99.90;;;;;;5017453;28;20029;-89
2023/01/29 04:23:45;;;;;;;37.55;17.83;;;1.60;99.90;;;;;;5012626;28;20393;-90
2023/01/29 04:26:36;;;;;;;36.60;17.30;;;1.60;99.90;;;;;;5015279;28;20047;-90
2023/01/29 04:29:20;;;;;;;37.28;18.20;;;1.60;99.90;;;;;;5022306;28;20034;-89
2023/01/29 04:32:14;;;;;;;38.67;18.77;;;1.60;99.90;;;;;;5008862;28;20030;-89
2023/01/29 04:34:50;;;;;;;36.30;17.10;;;1.60;99.90;;;;;;5014585;28;20025;-89
2023/01/29 04:37:25;;;;;;;37.60;18.92;;;1.60;99.90;;;;;;5016609;28;20172;-89
2023/01/29 04:40:03;;;;;;;39.30;17.38;;;1.60;99.90;;;;;;5035339;28;20029;-90
2023/01/29 04:42:43;;;;;;;41.05;19.77;;;1.70;99.90;;;;;;5035737;28;20029;-90
2023/01/29 04:45:26;;;;;;;38.70;19.40;;;1.70;99.90;;;;;;5012060;28;20079;-90
2023/01/29 04:47:59;;;;;;;41.28;19.75;;;1.70;99.90;;;;;;5022386;28;20022;-89
2023/01/29 04:50:28;;;;;;;39.60;20.48;;;1.60;99.90;;;;;;5018501;28;20035;-90
2023/01/29 04:53:16;;;;;;;41.42;19.77;;;1.70;99.90;;;;;;5016839;28;20029;-90
2023/01/29 04:56:00;;;;;;;39.85;19.45;;;1.70;99.90;;;;;;5014449;28;20042;-90
2023/01/29 04:58:32;;;;;;;38.33;19.90;;;1.70;99.90;;;;;;5016085;28;20494;-90
2023/01/29 05:00:59;;;;;;;;;;;1.70;99.90;;;;;;5018349;28;20051;-90
2023/01/29 05:03:27;;;;;;;40.20;19.20;;;1.70;99.90;;;;;;5036027;28;19909;-89
2023/01/29 05:05:54;;;;;;;40.03;19.52;;;1.70;99.90;;;;;;5019587;28;20535;-90
2023/01/29 05:08:23;;;;;;;39.35;19.45;;;1.80;99.90;;;;;;5017630;28;20037;-90
2023/01/29 05:10:51;;;;;;;40.47;20.88;;;1.80;99.90;;;;;;5022272;28;20049;-90
2023/01/29 05:13:19;;;;;;;41.30;20.35;;;1.80;99.90;;;;;;5004832;28;20044;-89
2023/01/29 05:16:06;;;;;;;40.47;19.83;;;1.80;99.90;;;;;;5018313;28;20028;-90
2023/01/29 05:18:33;;;;;;;42.67;19.92;;;1.90;99.90;;;;;;5030232;28;20061;-90
2023/01/29 05:21:03;;;;;;;38.47;19.75;;;1.90;99.90;;;;;;5017380;28;20030;-89
2023/01/29 05:23:29;;;;;;;36.08;18.17;;;1.90;99.90;;;;;;5017231;28;20033;-90
2023/01/29 05:25:56;;;;;;;40.65;19.65;;;1.90;99.90;;;;;;5017933;28;20026;-91
2023/01/29 05:28:22;;;;;;;38.50;19.13;;;1.90;99.90;;;;;;5014884;28;20132;-90
2023/01/29 05:30:50;;;;;;;44.22;19.55;;;1.90;99.90;;;;;;5020534;28;20021;-90
2023/01/29 05:33:18;;;;;;;40.65;19.60;;;2.00;99.90;;;;;;5024437;28;20026;-89
2023/01/29 05:35:44;;;;;;;47.75;21.67;;;1.90;99.90;;;;;;5007388;28;20267;-89
2023/01/29 05:38:09;;;;;;;40.17;20.50;;;1.90;99.90;;;;;;5015747;28;20129;-89
2023/01/29 05:40:35;;;;;;;35.58;18.08;;;1.90;99.90;;;;;;5018129;28;20030;-90
2023/01/29 05:43:00;;;;;;;43.38;20.33;;;1.90;99.90;;;;;;5016243;28;20035;-90
2023/01/29 05:45:26;;;;;;;43.45;20.48;;;1.90;99.90;;;;;;5017680;28;20080;-90
2023/01/29 05:47:59;;;;;;;39.78;19.80;;;2.00;99.90;;;;;;5012198;28;20073;-89
2023/01/29 05:50:26;;;;;;;39.45;19.55;;;1.90;99.90;;;;;;5016777;28;20021;-90
2023/01/29 05:52:59;;;;;;;38.92;19.00;;;1.90;99.90;;;;;;5017317;28;20032;-89
2023/01/29 05:55:25;;;;;;;35.85;18.50;;;2.00;99.90;;;;;;5023139;28;20022;-88
2023/01/29 05:57:50;;;;;;;36.78;17.65;;;2.00;99.90;;;;;;5029541;28;20041;-89
2023/01/29 06:00:16;;;;;;;39.03;18.35;;;2.00;99.90;;;;;;5010064;28;20026;-89
2023/01/29 06:02:42;;;;;;;39.55;18.83;;;2.00;99.90;;;;;;5002027;28;20136;-90
2023/01/29 06:05:08;;;;;;;37.75;20.13;;;2.00;99.90;;;;;;5014260;28;20045;-89
2023/01/29 06:07:33;;;;;;;38.67;18.40;;;1.90;99.90;;;;;;5016372;28;20025;-88
2023/01/29 06:09:59;;;;;;;34.90;17.85;;;2.00;99.90;;;;;;5033780;28;20034;-89
2023/01/29 06:12:26;;;;;;;37.13;18.50;;;2.00;99.90;;;;;;5013131;28;20470;-91
2023/01/29 06:14:52;;;;;;;38.45;18.58;;;2.00;99.90;;;;;;5032598;28;20029;-89
2023/01/29 06:17:17;;;;;;;37.70;17.88;;;2.00;99.90;;;;;;5019420;28;20393;-89
2023/01/29 06:19:43;;;;;;;41.25;19.63;;;2.00;99.90;;;;;;5016310;28;20018;-89
2023/01/29 06:22:08;;;;;;;37.42;19.48;;;2.00;99.90;;;;;;5009886;28;20033;-89
2023/01/29 06:24:34;;;;;;;40.45;20.38;;;2.00;99.90;;;;;;5019857;28;20017;-90
2023/01/29 06:26:59;;;;;;;37.40;20.10;;;2.00;99.90;;;;;;5036529;28;20033;-90
2023/01/29 06:29:25;;;;;;;41.88;20.55;;;2.00;99.90;;;;;;5036051;28;20088;-90
2023/01/29 06:31:51;;;;;;;45.38;20.80;;;2.00;99.90;;;;;;5018599;28;20030;-90
2023/01/29 06:34:16;;;;;;;42.58;20.25;;;2.00;99.90;;;;;;5016962;28;20061;-90
2023/01/29 06:36:42;;;;;;;41.22;20.42;;;2.00;99.90;;;;;;5018280;28;20033;-89
2023/01/29 06:39:08;;;;;;;43.78;21.25;;;2.00;99.90;;;;;;5017169;28;20049;-89
2023/01/29 06:41:34;;;;;;;43.47;20.85;;;2.10;99.90;;;;;;5017197;28;20033;-89
2023/01/29 06:43:59;;;;;;;45.35;22.33;;;2.10;99.90;;;;;;5015982;28;20029;-89
2023/01/29 06:46:25;;;;;;;42.03;20.75;;;2.10;99.90;;;;;;5020160;28;20021;-90
2023/01/29 06:48:51;;;;;;;43.28;21.58;;;2.10;99.90;;;;;;5017799;28;20037;-89
2023/01/29 06:51:16;;;;;;;42.90;21.42;;;2.10;99.90;;;;;;5016990;28;20037;-90
2023/01/29 06:53:42;;;;;;;41.88;21.13;;;2.10;99.90;;;;;;5016902;28;20064;-90
2023/01/29 06:56:07;;;;;;;43.42;23.00;;;2.10;99.90;;;;;;5013679;28;20026;-90
2023/01/29 06:58:37;;;;;;;46.22;21.33;;;2.20;99.90;;;;;;5020698;28;20091;-90
2023/01/29 07:01:07;;;;;;;46.53;22.05;;;2.20;99.90;;;;;;5024996;28;20049;-89
2023/01/29 07:03:33;;;;;;;44.00;23.63;;;2.20;99.90;;;;;;5013224;28;20486;-90
2023/01/29 07:05:59;;;;;;;42.03;21.80;;;2.20;99.90;;;;;;5013966;28;20033;-89
2023/01/29 07:08:24;;;;;;;42.25;22.77;;;2.20;99.90;;;;;;5019295;28;20033;-90
2023/01/29 07:10:50;;;;;;;46.08;23.48;;;2.20;99.90;;;;;;5030803;28;20025;-89
2023/01/29 07:13:15;;;;;;;44.50;22.38;;;2.20;99.90;;;;;;5013693;28;20030;-89
2023/01/29 07:15:41;;;;;;;46.35;22.27;;;2.20;99.90;;;;;;5019289;28;20029;-91
2023/01/29 07:18:11;;;;;;;43.08;20.55;;;2.20;99.90;;;;;;5017510;28;20501;-90
2023/01/29 07:20:39;;;;;;;45.85;22.75;;;2.30;99.90;;;;;;5017227;28;20025;-90
2023/01/29 07:23:05;;;;;;;42.67;21.77;;;2.30;99.90;;;;;;5012227;28;20037;-89
2023/01/29 07:25:33;;;;;;;43.80;22.98;;;2.30;99.90;;;;;;5008602;28;20041;-90
2023/01/29 07:28:02;;;;;;;42.38;21.90;;;2.30;99.90;;;;;;5017536;28;20052;-89
2023/01/29 07:30:28;;;;;;;41.70;21.42;;;2.30;99.90;;;;;;5011991;28;20032;-90
2023/01/29 07:32:53;;;;;;;42.33;21.50;;;2.30;99.90;;;;;;5019960;28;20041;-90
2023/01/29 07:35:19;;;;;;;41.03;20.42;;;2.30;99.90;;;;;;5017093;28;20032;-90
2023/01/29 07:37:48;;;;;;;37.42;20.52;;;2.40;99.90;;;;;;5018459;28;20473;-90
2023/01/29 07:40:14;;;;;;;40.80;21.63;;;2.40;99.90;;;;;;5018692;28;20021;-90
2023/01/29 07:42:41;;;;;;;39.88;21.10;;;2.40;99.90;;;;;;5025309;28;20489;-90
2023/01/29 07:45:07;;;;;;;41.53;20.70;;;2.30;99.90;;;;;;5017525;28;20021;-90
2023/01/29 07:47:33;;;;;;;40.45;20.88;;;2.40;99.90;;;;;;5014977;28;20112;-89
2023/01/29 07:49:59;;;;;;;40.38;21.17;;;2.40;99.90;;;;;;5015242;28;20056;-90
2023/01/29 07:52:25;;;;;;;42.40;21.45;;;2.30;99.90;;;;;;5033362;28;20468;-90
2023/01/29 07:54:50;;;;;;;38.83;21.48;;;2.40;99.90;;;;;;5017384;28;20022;-90
2023/01/29 07:57:16;;;;;;;42.78;21.27;;;2.40;99.90;;;;;;5009007;28;20040;-90
2023/01/29 07:59:41;;;;;;;42.75;22.40;;;2.40;99.90;;;;;;5037112;28;20150;-91
2023/01/29 08:02:08;;;;;;;39.33;21.48;;;2.40;99.90;;;;;;5015851;28;20451;-92
2023/01/29 08:04:34;;;;;;;43.60;22.23;;;2.40;99.90;;;;;;5019496;28;20025;-91
2023/01/29 08:07:00;;;;;;;37.88;19.88;;;2.40;99.90;;;;;;5010457;28;20486;-89
2023/01/29 08:09:25;;;;;;;41.38;21.13;;;2.40;99.90;;;;;;5019210;28;20036;-91
2023/01/29 08:11:51;;;;;;;38.13;20.77;;;2.50;99.90;;;;;;5010460;28;20120;-90
2023/01/29 08:14:17;;;;;;;41.25;21.20;;;2.40;99.90;;;;;;5020058;28;20025;-89
2023/01/29 08:16:42;;;;;;;42.45;21.10;;;2.50;99.90;;;;;;5020213;28;20367;-90
2023/01/29 08:19:08;;;;;;;43.22;21.58;;;2.50;99.90;;;;;;5019988;28;20552;-89
2023/01/29 08:21:33;;;;;;;41.92;21.50;;;2.50;99.90;;;;;;5018311;28;20025;-89
2023/01/29 08:23:59;;;;;;;39.53;22.05;;;2.50;99.90;;;;;;5014643;28;20052;-90
2023/01/29 08:26:26;;;;;;;43.35;21.25;;;2.50;99.90;;;;;;5010852;28;20037;-90
2023/01/29 08:28:51;;;;;;;39.35;22.25;;;2.50;99.90;;;;;;5015186;28;20029;-90
2023/01/29 08:31:21;;;;;;;42.40;21.25;;;2.50;99.90;;;;;;5022603;28;20070;-90
2023/01/29 08:33:46;;;;;;;43.20;21.50;;;2.50;99.90;;;;;;5025984;28;20032;-90
2023/01/29 08:36:12;;;;;;;40.88;22.48;;;2.60;99.90;;;;;;5018855;28;20021;-89
2023/01/29 08:38:40;;;;;;;39.90;21.80;;;2.60;99.90;;;;;;5020057;28;20056;-89
2023/01/29 08:41:06;;;;;;;41.88;21.10;;;2.60;99.90;;;;;;5022191;28;20389;-91
2023/01/29 08:43:31;;;;;;;38.20;21.25;;;2.60;99.90;;;;;;5038683;28;20041;-91
2023/01/29 08:45:57;;;;;;;40.90;20.65;;;2.60;99.90;;;;;;5028244;28;20030;-90
2023/01/29 08:48:24;;;;;;;42.10;21.23;;;2.70;99.90;;;;;;5022195;28;20025;-90
2023/01/29 08:50:49;;;;;;;33.92;19.65;;;2.70;99.90;;;;;;5019409;28;20056;-90
2023/01/29 08:53:15;;;;;;;35.25;19.38;;;2.80;99.90;;;;;;5022275;28;20026;-90
2023/01/29 08:55:41;;;;;;;36.70;20.38;;;2.80;99.90;;;;;;5018599;28;20025;-90
2023/01/29 08:58:07;;;;;;;40.95;21.45;;;2.80;99.90;;;;;;5020552;28;20468;-90
2023/01/29 09:00:34;;;;;;;35.83;20.15;;;2.80;99.90;;;;;;5020573;28;20017;-90
2023/01/29 09:02:59;;;;;;;37.50;19.35;;;2.90;99.90;;;;;;5022764;28;20156;-91
2023/01/29 09:05:26;;;;;;;36.75;19.55;;;2.90;99.90;;;;;;5019958;28;20025;-91
2023/01/29 09:07:52;;;;;;;37.90;20.13;;;2.90;99.90;;;;;;5018807;28;20025;-90
2023/01/29 09:10:18;;;;;;;37.33;19.50;;;2.90;99.90;;;;;;5020956;28;20037;-91
2023/01/29 09:12:44;;;;;;;35.85;19.95;;;2.90;99.90;;;;;;5020145;28;20124;-92
2023/01/29 09:15:10;;;;;;;39.35;20.23;;;2.90;99.90;;;;;;5036399;28;20021;-90
2023/01/29 09:17:35;;;;;;;38.50;20.23;;;3.00;99.90;;;;;;5032615;28;20026;-89
2023/01/29 09:20:01;;;;;;;34.92;18.90;;;3.00;99.90;;;;;;5022229;28;20032;-91
2023/01/29 09:22:27;;;;;;;35.50;17.70;;;3.00;99.90;;;;;;5021345;28;20029;-91
2023/01/29 09:24:52;;;;;;;37.42;19.85;;;3.00;99.90;;;;;;5039517;28;20025;-91
2023/01/29 09:27:18;;;;;;;33.33;18.40;;;3.10;99.90;;;;;;5023503;28;20056;-92
2023/01/29 09:29:43;;;;;;;33.65;17.95;;;3.10;99.90;;;;;;5023302;28;20072;-91
2023/01/29 09:32:09;;;;;;;32.58;18.10;;;3.10;99.90;;;;;;5024218;28;20091;-91
2023/01/29 09:34:35;;;;;;;37.17;19.38;;;3.10;99.90;;;;;;5019725;28;20022;-91
2023/01/29 09:37:00;;;;;;;35.35;19.83;;;3.10;99.90;;;;;;5023443;28;20033;-91
2023/01/29 09:39:26;;;;;;;32.72;19.05;;;3.20;99.90;;;;;;5022736;28;20103;-91
2023/01/29 09:42:18;;;;;;;35.70;18.65;;;3.20;99.90;;;;;;5039668;28;20358;-91
2023/01/29 09:45:28;;;;;;;32.20;17.33;;;3.20;99.90;;;;;;5020821;28;20511;-91
2023/01/29 09:48:00;;;;;;;31.17;18.42;;;3.30;99.90;;;;;;4925557;29;20489;-92
2023/01/29 09:50:35;;;;;;;34.93;18.63;;;3.30;99.90;;;;;;4949505;29;20123;-89
2023/01/29 09:53:20;;;;;;;33.50;18.13;;;3.30;99.90;;;;;;4986406;28;20120;-90
2023/01/29 09:56:11;;;;;;;33.70;18.95;;;3.30;99.90;;;;;;5040998;28;20044;-90
2023/01/29 09:58:38;;;;;;;35.13;18.02;;;3.30;99.90;;;;;;5034227;28;20041;-90
2023/01/29 10:01:24;;;;;;;31.63;17.70;;;3.30;99.90;;;;;;5009213;28;20580;-90
2023/01/29 10:04:18;;;;;;;32.90;17.77;;;3.40;99.90;;;;;;5017664;28;20033;-90
2023/01/29 10:07:02;;;;;;;34.42;18.98;;;3.40;99.90;;;;;;5017810;28;20385;-91
2023/01/29 10:09:36;;;;;;;31.77;18.30;;;3.40;99.90;;;;;;5031821;28;20018;-86
2023/01/29 10:12:23;;;;;;;32.00;18.13;;;3.40;99.90;;;;;;5021648;28;20029;-89
2023/01/29 10:15:08;;;;;;;31.23;17.58;;;3.40;99.90;;;;;;5015046;28;20116;-88
2023/01/29 10:17:51;;;;;;;28.25;16.92;;;3.50;99.90;;;;;;5018751;28;20025;-89
2023/01/29 10:20:40;;;;;;;28.98;16.38;;;3.50;99.90;;;;;;5014854;28;20033;-90
2023/01/29 10:23:20;;;;;;;37.97;19.33;;;3.50;99.90;;;;;;5020534;28;20477;-89
2023/01/29 10:25:47;;;;;;;29.42;16.13;;;3.50;99.90;;;;;;5019334;28;20128;-89
2023/01/29 10:28:32;;;;;;;30.48;17.85;;;3.50;99.90;;;;;;5020104;28;20025;-89
2023/01/29 10:31:19;;;;;;;33.28;18.08;;;3.60;99.90;;;;;;5011074;28;20048;-89
2023/01/29 10:33:51;;;;;;;29.08;17.50;;;3.60;99.90;;;;;;5007748;28;20029;-89
2023/01/29 10:36:25;;;;;;;27.20;15.70;;;3.60;99.90;;;;;;5038903;28;20033;-89
2023/01/29 10:38:51;;;;;;;26.60;16.05;;;3.70;99.90;;;;;;5023177;28;20053;-89
2023/01/29 10:41:45;;;;;;;27.05;16.70;;;3.70;99.90;;;;;;5019807;28;20095;-89
2023/01/29 10:44:55;;;;;;;26.77;15.70;;;3.80;99.90;;;;;;5019938;28;20085;-89
2023/01/29 10:47:40;;;;;;;28.48;16.60;;;3.90;99.90;;;;;;4993068;28;20033;-89
2023/01/29 10:50:08;;;;;;;26.55;16.42;;;3.90;99.90;;;;;;5025263;28;20053;-90
2023/01/29 10:52:41;;;;;;;26.98;16.55;;;3.90;99.90;;;;;;5019610;28;20139;-89
2023/01/29 10:55:22;;;;;;;27.77;14.73;;;4.00;99.90;;;;;;5010981;28;20022;-90
2023/01/29 10:57:55;;;;;;;29.13;16.30;;;4.00;99.90;;;;;;5012460;28;20029;-89
2023/01/29 11:00:38;;;;;;;22.10;14.43;;;4.00;99.90;;;;;;5016774;28;20026;-89
2023/01/29 11:03:17;;;;;;;26.77;15.40;;;4.10;99.90;;;;;;5027925;28;20026;-88
2023/01/29 11:06:16;;;;;;;24.13;14.63;;;4.10;99.90;;;;;;5005111;28;20648;-90
2023/01/29 11:08:55;;;;;;;25.40;15.20;;;4.10;99.90;;;;;;5009534;28;20037;-90
2023/01/29 11:11:29;;;;;;;26.02;15.02;;;4.10;99.90;;;;;;5015547;28;20018;-89
2023/01/29 11:14:07;;;;;;;24.45;14.57;;;4.20;99.90;;;;;;5001555;28;20141;-90
2023/01/29 11:16:47;;;;;;;25.08;14.35;;;4.20;99.90;;;;;;5009377;28;20022;-87
2023/01/29 11:19:13;;;;;;;24.38;15.18;;;4.30;99.90;;;;;;5015309;28;20056;-90
2023/01/29 11:21:52;;;;;;;27.23;15.85;;;4.40;99.90;;;;;;5014121;28;20022;-90
2023/01/29 11:24:17;;;;;;;24.85;15.40;;;4.40;99.90;;;;;;5018231;28;20035;-89
2023/01/29 11:26:46;;;;;;;27.63;15.55;;;4.40;99.90;;;;;;5009828;28;20030;-90
2023/01/29 11:29:31;;;;;;;25.48;14.95;;;4.50;99.90;;;;;;5026687;28;20033;-90
2023/01/29 11:31:59;;;;;;;24.15;13.88;;;4.50;99.90;;;;;;5017307;28;20065;-89
2023/01/29 11:34:29;;;;;;;30.45;16.60;;;4.50;99.90;;;;;;5018402;28;20031;-90
2023/01/29 11:37:00;;;;;;;27.23;15.40;;;4.50;99.90;;;;;;5022544;28;20374;-90
2023/01/29 11:39:27;;;;;;;25.85;16.02;;;4.50;99.90;;;;;;5016916;28;20063;-90
2023/01/29 11:41:55;;;;;;;28.10;15.35;;;4.60;99.90;;;;;;5018866;28;20116;-90
2023/01/29 11:44:27;;;;;;;26.52;16.08;;;4.60;99.90;;;;;;5017251;28;20025;-91
2023/01/29 11:46:54;;;;;;;26.17;15.55;;;4.60;99.90;;;;;;5028203;28;20026;-90
2023/01/29 11:49:39;;;;;;;23.60;15.15;;;4.60;99.90;;;;;;5024881;28;20029;-91
2023/01/29 11:52:07;;;;;;;24.98;15.38;;;4.60;99.90;;;;;;5018846;28;20029;-91
2023/01/29 11:54:59;;;;;;;25.92;15.68;;;4.60;99.90;;;;;;5011419;28;20030;-91
2023/01/29 11:57:33;;;;;;;29.92;17.10;;;4.60;99.90;;;;;;5018839;28;20040;-91
2023/01/29 12:00:06;;;;;;;27.23;16.77;;;4.60;99.90;;;;;;4999347;28;20033;-90
2023/01/29 12:02:37;;;;;;;27.15;15.57;;;4.60;99.90;;;;;;5016055;28;20125;-91
2023/01/29 12:05:12;;;;;;;30.50;18.80;;;4.60;99.90;;;;;;5020592;28;20515;-91
2023/01/29 12:07:41;;;;;;;28.95;18.10;;;4.50;99.90;;;;;;5035967;28;20025;-90
2023/01/29 12:10:37;;;;;;;27.90;16.77;;;4.60;99.90;;;;;;5036101;28;20042;-90
2023/01/29 12:13:23;;;;;;;29.98;18.40;;;4.50;99.90;;;;;;5017660;28;20026;-90
2023/01/29 12:16:03;;;;;;;32.63;19.67;;;4.50;99.90;;;;;;5019123;28;20028;-90
2023/01/29 12:18:38;;;;;;;27.67;18.00;;;4.50;99.90;;;;;;5019017;28;20033;-90
2023/01/29 12:21:27;;;;;;;29.80;16.92;;;4.50;99.90;;;;;;5019311;28;20055;-89
2023/01/29 12:24:24;;;;;;;30.73;18.08;;;4.50;99.90;;;;;;5012140;28;20025;-91
2023/01/29 12:27:16;;;;;;;25.45;16.35;;;4.40;99.90;;;;;;5020631;28;20025;-90
2023/01/29 12:30:00;;;;;;;28.50;17.15;;;4.50;99.90;;;;;;5001583;28;20070;-90
2023/01/29 12:32:59;;;;;;;27.70;17.73;;;4.40;99.90;;;;;;5011128;28;20088;-88
2023/01/29 12:35:53;;;;;;;25.27;15.93;;;4.40;99.90;;;;;;5031932;28;20029;-89
2023/01/29 12:38:23;;;;;;;26.38;15.30;;;4.40;99.90;;;;;;5010913;28;20057;-89
2023/01/29 12:40:58;;;;;;;28.42;17.92;;;4.40;99.90;;;;;;5021515;28;20111;-89
2023/01/29 12:43:36;;;;;;;30.80;18.35;;;4.40;99.90;;;;;;5021725;28;20121;-90
2023/01/29 12:46:07;;;;;;;29.70;18.27;;;4.40;99.90;;;;;;5006469;28;20029;-90
2023/01/29 12:48:35;;;;;;;28.20;16.98;;;4.40;99.90;;;;;;5022123;28;20029;-90
2023/01/29 12:51:10;;;;;;;30.65;17.83;;;4.30;99.90;;;;;;5021666;28;20037;-90
2023/01/29 12:53:38;;;;;;;29.80;17.90;;;4.30;99.90;;;;;;5021339;28;20022;-89
2023/01/29 12:56:16;;;;;;;31.48;18.92;;;4.30;99.90;;;;;;5021624;28;20029;-90
2023/01/29 12:58:47;;;;;;;27.27;16.05;;;4.30;99.90;;;;;;5021752;28;20488;-89
2023/01/29 13:01:45;;;;;;;31.48;18.45;;;4.30;99.90;;;;;;5021670;28;20032;-90
2023/01/29 13:04:22;;;;;;;32.30;18.40;;;4.30;99.90;;;;;;4995182;28;20064;-90
2023/01/29 13:06:58;;;;;;;34.42;19.27;;;4.30;99.90;;;;;;5032923;28;20033;-90
2023/01/29 13:09:27;;;;;;;31.33;17.30;;;4.30;99.90;;;;;;5021576;28;20025;-89
2023/01/29 13:12:03;;;;;;;30.40;18.83;;;4.30;99.90;;;;;;5006221;28;20033;-90
2023/01/29 13:14:35;;;;;;;33.55;19.75;;;4.40;99.90;;;;;;5021263;28;20477;-90
2023/01/29 13:17:29;;;;;;;34.67;19.80;;;4.40;99.90;;;;;;5030279;28;20030;-89
2023/01/29 13:20:00;;;;;;;32.10;18.65;;;4.40;99.90;;;;;;5016587;28;20056;-89
2023/01/29 13:22:34;;;;;;;36.38;20.67;;;4.40;99.90;;;;;;5040130;28;20021;-89
2023/01/29 13:25:00;;;;;;;32.28;19.05;;;4.40;99.90;;;;;;5025581;28;20024;-90
2023/01/29 13:27:29;;;;;;;35.83;19.75;;;4.40;99.90;;;;;;5023008;28;20123;-89
2023/01/29 13:29:56;;;;;;;34.85;20.48;;;4.40;99.90;;;;;;5020553;28;20022;-90